sensor_id;sensor_type;location;lat;lon;timestamp;P1;durP1;ratioP1;P2;durP2;ratioP2
61385;SDS011;47256;18.904;-99.054;2024-02-15T00:02:12;37.60;;;10.07;;
61385;SDS011;47256;18.904;-99.054;2024-02-15T00:04:39;33.85;;;9.45;;
61385;SDS011;47256;18.904;-99.054;2024-02-15T00:07:08;34.38;;;9.82;;
61385;SDS011;47256;18.904;-99.054;2024-02-15T00:09:35;46.45;;;10.82;;
61385;SDS011;47256;18.904;-99.054;2024-02-15T00:12:03;37.70;;;11.07;;
61385;SDS011;47256;18.904;-99.054;2024-02-15T00:14:31;41.90;;;11.35;;
61385;SDS011;47256;18.904;-99.054;2024-02-15T00:17:02;39.67;;;12.50;;
61385;SDS011;47256;18.904;-99.054;2024-02-15T00:19:34;55.20;;;12.80;;
61385;SDS011;47256;18.904;-99.054;2024-02-15T00:22:05;50.88;;;13.05;;
61385;SDS011;47256;18.904;-99.054;2024-02-15T00:24:33;34.03;;;9.18;;
61385;SDS011;47256;18.904;-99.054;2024-02-15T00:27:03;41.05;;;11.55;;
61385;SDS011;47256;18.904;-99.054;2024-02-15T00:29:31;41.17;;;11.05;;
61385;SDS011;47256;18.904;-99.054;2024-02-15T00:32:00;50.15;;;12.65;;
61385;SDS011;47256;18.904;-99.054;2024-02-15T00:34:30;66.13;;;13.38;;
61385;SDS011;47256;18.904;-99.054;2024-02-15T00:36:59;99.43;;;15.30;;
61385;SDS011;47256;18.904;-99.054;2024-02-15T00:39:26;89.85;;;13.30;;
61385;SDS011;47256;18.904;-99.054;2024-02-15T00:41:54;74.15;;;13.82;;
61385;SDS011;47256;18.904;-99.054;2024-02-15T00:44:21;80.70;;;15.48;;
61385;SDS011;47256;18.904;-99.054;2024-02-15T00:46:48;66.93;;;14.88;;
61385;SDS011;47256;18.904;-99.054;2024-02-15T00:49:16;91.25;;;15.85;;
61385;SDS011;47256;18.904;-99.054;2024-02-15T00:51:46;75.15;;;17.55;;
61385;SDS011;47256;18.904;-99.054;2024-02-15T00:54:15;95.80;;;17.98;;
61385;SDS011;47256;18.904;-99.054;2024-02-15T00:56:42;93.05;;;18.17;;
61385;SDS011;47256;18.904;-99.054;2024-02-15T00:59:10;80.10;;;18.08;;
61385;SDS011;47256;18.904;-99.054;2024-02-15T01:01:38;82.95;;;20.67;;
61385;SDS011;47256;18.904;-99.054;2024-02-15T01:04:06;72.97;;;23.13;;
61385;SDS011;47256;18.904;-99.054;2024-02-15T01:06:34;82.80;;;26.88;;
61385;SDS011;47256;18.904;-99.054;2024-02-15T01:09:01;63.63;;;21.00;;
61385;SDS011;47256;18.904;-99.054;2024-02-15T01:11:31;46.10;;;15.95;;
61385;SDS011;47256;18.904;-99.054;2024-02-15T01:13:59;62.30;;;19.92;;
61385;SDS011;47256;18.904;-99.054;2024-02-15T01:16:26;38.20;;;13.07;;
61385;SDS011;47256;18.904;-99.054;2024-02-15T01:18:55;30.73;;;12.23;;
61385;SDS011;47256;18.904;-99.054;2024-02-15T01:21:23;22.67;;;8.23;;
61385;SDS011;47256;18.904;-99.054;2024-02-15T01:23:52;28.77;;;8.95;;
61385;SDS011;47256;18.904;-99.054;2024-02-15T01:26:20;22.02;;;6.82;;
61385;SDS011;47256;18.904;-99.054;2024-02-15T01:28:49;20.95;;;7.65;;
61385;SDS011;47256;18.904;-99.054;2024-02-15T01:31:16;20.92;;;6.20;;
61385;SDS011;47256;18.904;-99.054;2024-02-15T01:33:44;30.52;;;11.25;;
61385;SDS011;47256;18.904;-99.054;2024-02-15T01:36:15;35.60;;;7.63;;
61385;SDS011;47256;18.904;-99.054;2024-02-15T01:38:44;27.30;;;7.80;;
61385;SDS011;47256;18.904;-99.054;2024-02-15T01:41:11;21.23;;;6.40;;
61385;SDS011;47256;18.904;-99.054;2024-02-15T01:43:42;16.92;;;7.07;;
61385;SDS011;47256;18.904;-99.054;2024-02-15T01:46:14;26.67;;;9.95;;
61385;SDS011;47256;18.904;-99.054;2024-02-15T01:48:43;21.40;;;8.68;;
61385;SDS011;47256;18.904;-99.054;2024-02-15T01:51:12;22.02;;;8.40;;
61385;SDS011;47256;18.904;-99.054;2024-02-15T01:53:43;24.23;;;8.95;;
61385;SDS011;47256;18.904;-99.054;2024-02-15T01:56:11;21.35;;;9.68;;
61385;SDS011;47256;18.904;-99.054;2024-02-15T01:58:40;25.17;;;9.88;;
61385;SDS011;47256;18.904;-99.054;2024-02-15T02:01:10;22.65;;;9.82;;
61385;SDS011;47256;18.904;-99.054;2024-02-15T02:03:39;25.95;;;8.55;;
61385;SDS011;47256;18.904;-99.054;2024-02-15T02:06:07;21.25;;;8.43;;
61385;SDS011;47256;18.904;-99.054;2024-02-15T02:08:34;19.23;;;7.75;;
61385;SDS011;47256;18.904;-99.054;2024-02-15T02:11:05;19.92;;;7.90;;
61385;SDS011;47256;18.904;-99.054;2024-02-15T02:13:33;24.70;;;8.38;;
61385;SDS011;47256;18.904;-99.054;2024-02-15T02:16:23;20.67;;;7.80;;
61385;SDS011;47256;18.904;-99.054;2024-02-15T02:18:55;21.58;;;7.45;;
61385;SDS011;47256;18.904;-99.054;2024-02-15T02:24:21;37.38;;;9.98;;
61385;SDS011;47256;18.904;-99.054;2024-02-15T02:26:49;32.88;;;9.77;;
61385;SDS011;47256;18.904;-99.054;2024-02-15T02:29:18;29.88;;;14.40;;
61385;SDS011;47256;18.904;-99.054;2024-02-15T02:31:46;46.00;;;20.15;;
61385;SDS011;47256;18.904;-99.054;2024-02-15T02:34:15;42.42;;;15.45;;
61385;SDS011;47256;18.904;-99.054;2024-02-15T02:36:45;37.58;;;17.60;;
61385;SDS011;47256;18.904;-99.054;2024-02-15T02:39:13;38.78;;;18.10;;
61385;SDS011;47256;18.904;-99.054;2024-02-15T02:41:41;36.22;;;16.85;;
61385;SDS011;47256;18.904;-99.054;2024-02-15T02:44:08;40.22;;;15.75;;
61385;SDS011;47256;18.904;-99.054;2024-02-15T02:46:35;30.08;;;12.77;;
61385;SDS011;47256;18.904;-99.054;2024-02-15T02:49:04;58.10;;;13.48;;
61385;SDS011;47256;18.904;-99.054;2024-02-15T02:51:31;47.53;;;13.02;;
61385;SDS011;47256;18.904;-99.054;2024-02-15T02:54:00;32.58;;;12.30;;
61385;SDS011;47256;18.904;-99.054;2024-02-15T02:56:32;61.72;;;13.68;;
61385;SDS011;47256;18.904;-99.054;2024-02-15T02:59:01;40.28;;;10.98;;
61385;SDS011;47256;18.904;-99.054;2024-02-15T03:01:29;40.53;;;13.77;;
61385;SDS011;47256;18.904;-99.054;2024-02-15T03:03:58;40.72;;;12.00;;
61385;SDS011;47256;18.904;-99.054;2024-02-15T03:06:25;44.35;;;12.52;;
61385;SDS011;47256;18.904;-99.054;2024-02-15T03:08:53;36.88;;;12.50;;
61385;SDS011;47256;18.904;-99.054;2024-02-15T03:11:21;59.70;;;13.70;;
61385;SDS011;47256;18.904;-99.054;2024-02-15T03:13:50;34.55;;;11.60;;
61385;SDS011;47256;18.904;-99.054;2024-02-15T03:16:21;42.85;;;11.05;;
61385;SDS011;47256;18.904;-99.054;2024-02-15T03:18:51;38.67;;;11.02;;
61385;SDS011;47256;18.904;-99.054;2024-02-15T03:21:18;42.25;;;10.73;;
61385;SDS011;47256;18.904;-99.054;2024-02-15T03:23:46;24.05;;;11.07;;
61385;SDS011;47256;18.904;-99.054;2024-02-15T03:26:13;30.48;;;9.20;;
61385;SDS011;47256;18.904;-99.054;2024-02-15T03:28:41;26.52;;;10.57;;
61385;SDS011;47256;18.904;-99.054;2024-02-15T03:31:08;25.08;;;10.60;;
61385;SDS011;47256;18.904;-99.054;2024-02-15T03:33:36;30.15;;;10.38;;
61385;SDS011;47256;18.904;-99.054;2024-02-15T03:36:04;32.95;;;13.20;;
61385;SDS011;47256;18.904;-99.054;2024-02-15T03:38:33;44.63;;;12.90;;
61385;SDS011;47256;18.904;-99.054;2024-02-15T03:41:00;41.45;;;13.50;;
61385;SDS011;47256;18.904;-99.054;2024-02-15T03:43:29;52.55;;;17.95;;
61385;SDS011;47256;18.904;-99.054;2024-02-15T03:45:56;51.47;;;14.88;;
61385;SDS011;47256;18.904;-99.054;2024-02-15T03:48:24;30.42;;;13.48;;
61385;SDS011;47256;18.904;-99.054;2024-02-15T03:50:51;37.05;;;16.15;;
61385;SDS011;47256;18.904;-99.054;2024-02-15T03:53:19;37.38;;;14.85;;
61385;SDS011;47256;18.904;-99.054;2024-02-15T03:55:46;41.75;;;13.52;;
61385;SDS011;47256;18.904;-99.054;2024-02-15T03:58:14;47.38;;;13.75;;
61385;SDS011;47256;18.904;-99.054;2024-02-15T04:00:41;36.55;;;13.45;;
61385;SDS011;47256;18.904;-99.054;2024-02-15T04:03:11;32.53;;;13.60;;
61385;SDS011;47256;18.904;-99.054;2024-02-15T04:05:39;39.35;;;15.05;;
61385;SDS011;47256;18.904;-99.054;2024-02-15T04:08:08;52.40;;;13.23;;
61385;SDS011;47256;18.904;-99.054;2024-02-15T04:10:36;42.75;;;16.67;;
61385;SDS011;47256;18.904;-99.054;2024-02-15T04:13:04;41.72;;;16.60;;
61385;SDS011;47256;18.904;-99.054;2024-02-15T04:15:32;32.67;;;14.65;;
61385;SDS011;47256;18.904;-99.054;2024-02-15T04:18:03;62.95;;;25.42;;
61385;SDS011;47256;18.904;-99.054;2024-02-15T04:20:31;67.38;;;28.30;;
61385;SDS011;47256;18.904;-99.054;2024-02-15T04:22:58;68.65;;;29.38;;
61385;SDS011;47256;18.904;-99.054;2024-02-15T04:25:26;58.30;;;26.13;;
61385;SDS011;47256;18.904;-99.054;2024-02-15T04:27:57;60.03;;;23.45;;
61385;SDS011;47256;18.904;-99.054;2024-02-15T04:30:30;47.83;;;18.90;;
61385;SDS011;47256;18.904;-99.054;2024-02-15T04:32:59;45.55;;;18.45;;
61385;SDS011;47256;18.904;-99.054;2024-02-15T04:35:26;48.78;;;17.75;;
61385;SDS011;47256;18.904;-99.054;2024-02-15T04:37:54;40.03;;;16.33;;
61385;SDS011;47256;18.904;-99.054;2024-02-15T04:40:21;36.35;;;15.95;;
61385;SDS011;47256;18.904;-99.054;2024-02-15T04:42:49;43.92;;;15.43;;
61385;SDS011;47256;18.904;-99.054;2024-02-15T04:45:17;43.55;;;16.67;;
61385;SDS011;47256;18.904;-99.054;2024-02-15T04:47:46;34.80;;;15.93;;
61385;SDS011;47256;18.904;-99.054;2024-02-15T04:50:16;39.90;;;16.08;;
61385;SDS011;47256;18.904;-99.054;2024-02-15T04:52:47;51.38;;;15.73;;
61385;SDS011;47256;18.904;-99.054;2024-02-15T04:55:15;35.10;;;16.02;;
61385;SDS011;47256;18.904;-99.054;2024-02-15T04:57:44;39.63;;;17.25;;
61385;SDS011;47256;18.904;-99.054;2024-02-15T05:00:15;45.33;;;16.63;;
61385;SDS011;47256;18.904;-99.054;2024-02-15T05:02:46;36.25;;;16.35;;
61385;SDS011;47256;18.904;-99.054;2024-02-15T05:05:15;40.92;;;15.00;;
61385;SDS011;47256;18.904;-99.054;2024-02-15T05:07:43;43.80;;;15.75;;
61385;SDS011;47256;18.904;-99.054;2024-02-15T05:10:11;39.78;;;15.55;;
61385;SDS011;47256;18.904;-99.054;2024-02-15T05:12:40;36.13;;;14.55;;
61385;SDS011;47256;18.904;-99.054;2024-02-15T05:15:08;48.58;;;14.57;;
61385;SDS011;47256;18.904;-99.054;2024-02-15T05:17:37;40.42;;;14.73;;
61385;SDS011;47256;18.904;-99.054;2024-02-15T05:20:10;115.53;;;61.55;;
61385;SDS011;47256;18.904;-99.054;2024-02-15T05:22:39;44.33;;;21.67;;
61385;SDS011;47256;18.904;-99.054;2024-02-15T05:25:13;40.47;;;17.05;;
61385;SDS011;47256;18.904;-99.054;2024-02-15T05:27:41;41.03;;;18.10;;
61385;SDS011;47256;18.904;-99.054;2024-02-15T05:30:10;45.47;;;16.52;;
61385;SDS011;47256;18.904;-99.054;2024-02-15T05:32:38;42.97;;;16.42;;
61385;SDS011;47256;18.904;-99.054;2024-02-15T05:35:11;36.90;;;15.50;;
61385;SDS011;47256;18.904;-99.054;2024-02-15T05:37:38;34.35;;;16.33;;
61385;SDS011;47256;18.904;-99.054;2024-02-15T05:40:06;39.47;;;15.88;;
61385;SDS011;47256;18.904;-99.054;2024-02-15T05:42:43;34.92;;;15.75;;
61385;SDS011;47256;18.904;-99.054;2024-02-15T05:47:51;44.00;;;15.68;;
61385;SDS011;47256;18.904;-99.054;2024-02-15T05:50:19;39.53;;;15.30;;
61385;SDS011;47256;18.904;-99.054;2024-02-15T05:52:50;40.28;;;15.80;;
61385;SDS011;47256;18.904;-99.054;2024-02-15T05:55:18;40.20;;;16.20;;
61385;SDS011;47256;18.904;-99.054;2024-02-15T05:57:46;41.80;;;17.75;;
61385;SDS011;47256;18.904;-99.054;2024-02-15T06:00:18;35.40;;;16.33;;
61385;SDS011;47256;18.904;-99.054;2024-02-15T06:02:45;54.65;;;16.33;;
61385;SDS011;47256;18.904;-99.054;2024-02-15T06:05:13;32.38;;;16.10;;
61385;SDS011;47256;18.904;-99.054;2024-02-15T06:07:44;44.05;;;16.63;;
61385;SDS011;47256;18.904;-99.054;2024-02-15T06:10:12;45.17;;;17.35;;
61385;SDS011;47256;18.904;-99.054;2024-02-15T06:12:41;41.45;;;16.02;;
61385;SDS011;47256;18.904;-99.054;2024-02-15T06:15:09;33.42;;;15.35;;
61385;SDS011;47256;18.904;-99.054;2024-02-15T06:17:47;39.28;;;16.00;;
61385;SDS011;47256;18.904;-99.054;2024-02-15T06:20:15;35.67;;;14.95;;
61385;SDS011;47256;18.904;-99.054;2024-02-15T06:22:51;44.78;;;16.35;;
61385;SDS011;47256;18.904;-99.054;2024-02-15T06:25:18;36.30;;;15.07;;
61385;SDS011;47256;18.904;-99.054;2024-02-15T06:27:47;34.50;;;15.10;;
61385;SDS011;47256;18.904;-99.054;2024-02-15T06:30:17;41.55;;;15.90;;
61385;SDS011;47256;18.904;-99.054;2024-02-15T06:33:02;34.85;;;14.68;;
61385;SDS011;47256;18.904;-99.054;2024-02-15T06:35:48;40.33;;;15.40;;
61385;SDS011;47256;18.904;-99.054;2024-02-15T06:38:35;33.95;;;14.20;;
61385;SDS011;47256;18.904;-99.054;2024-02-15T06:41:24;35.40;;;15.27;;
61385;SDS011;47256;18.904;-99.054;2024-02-15T06:43:52;51.33;;;15.23;;
61385;SDS011;47256;18.904;-99.054;2024-02-15T06:46:19;28.63;;;15.20;;
61385;SDS011;47256;18.904;-99.054;2024-02-15T06:48:47;39.20;;;15.15;;
61385;SDS011;47256;18.904;-99.054;2024-02-15T06:51:15;33.83;;;15.00;;
61385;SDS011;47256;18.904;-99.054;2024-02-15T06:53:43;30.02;;;13.50;;
61385;SDS011;47256;18.904;-99.054;2024-02-15T06:56:11;31.60;;;15.20;;
61385;SDS011;47256;18.904;-99.054;2024-02-15T06:58:40;37.00;;;15.15;;
61385;SDS011;47256;18.904;-99.054;2024-02-15T07:01:08;40.10;;;17.10;;
61385;SDS011;47256;18.904;-99.054;2024-02-15T07:03:39;34.58;;;15.45;;
61385;SDS011;47256;18.904;-99.054;2024-02-15T07:06:07;34.80;;;15.73;;
61385;SDS011;47256;18.904;-99.054;2024-02-15T07:08:34;39.17;;;15.82;;
61385;SDS011;47256;18.904;-99.054;2024-02-15T07:11:01;37.25;;;16.20;;
61385;SDS011;47256;18.904;-99.054;2024-02-15T07:13:30;37.05;;;15.35;;
61385;SDS011;47256;18.904;-99.054;2024-02-15T07:15:58;37.50;;;13.80;;
61385;SDS011;47256;18.904;-99.054;2024-02-15T07:18:25;34.05;;;12.88;;
61385;SDS011;47256;18.904;-99.054;2024-02-15T07:20:53;31.55;;;13.23;;
61385;SDS011;47256;18.904;-99.054;2024-02-15T07:23:20;31.83;;;11.80;;
61385;SDS011;47256;18.904;-99.054;2024-02-15T07:25:47;33.80;;;12.85;;
61385;SDS011;47256;18.904;-99.054;2024-02-15T07:28:16;31.10;;;12.27;;
61385;SDS011;47256;18.904;-99.054;2024-02-15T07:30:45;31.80;;;13.50;;
61385;SDS011;47256;18.904;-99.054;2024-02-15T07:33:14;30.73;;;11.55;;
61385;SDS011;47256;18.904;-99.054;2024-02-15T07:35:44;38.70;;;13.65;;
61385;SDS011;47256;18.904;-99.054;2024-02-15T07:38:12;33.90;;;14.00;;
61385;SDS011;47256;18.904;-99.054;2024-02-15T07:40:40;29.13;;;13.20;;
61385;SDS011;47256;18.904;-99.054;2024-02-15T07:43:08;45.15;;;15.27;;
61385;SDS011;47256;18.904;-99.054;2024-02-15T07:45:36;30.65;;;14.13;;
61385;SDS011;47256;18.904;-99.054;2024-02-15T07:48:04;32.80;;;12.77;;
61385;SDS011;47256;18.904;-99.054;2024-02-15T07:50:32;32.40;;;12.57;;
61385;SDS011;47256;18.904;-99.054;2024-02-15T07:53:00;38.20;;;12.35;;
61385;SDS011;47256;18.904;-99.054;2024-02-15T07:55:27;33.25;;;12.45;;
61385;SDS011;47256;18.904;-99.054;2024-02-15T07:57:55;29.92;;;11.75;;
61385;SDS011;47256;18.904;-99.054;2024-02-15T08:00:24;26.38;;;11.80;;
61385;SDS011;47256;18.904;-99.054;2024-02-15T08:02:54;36.55;;;12.18;;
61385;SDS011;47256;18.904;-99.054;2024-02-15T08:05:23;20.70;;;11.77;;
61385;SDS011;47256;18.904;-99.054;2024-02-15T08:07:50;27.33;;;12.02;;
61385;SDS011;47256;18.904;-99.054;2024-02-15T08:10:20;25.25;;;11.52;;
61385;SDS011;47256;18.904;-99.054;2024-02-15T08:12:48;26.02;;;12.43;;
61385;SDS011;47256;18.904;-99.054;2024-02-15T08:15:19;28.20;;;12.70;;
61385;SDS011;47256;18.904;-99.054;2024-02-15T08:17:46;28.98;;;13.05;;
61385;SDS011;47256;18.904;-99.054;2024-02-15T08:20:14;33.75;;;11.52;;
61385;SDS011;47256;18.904;-99.054;2024-02-15T08:22:47;23.80;;;11.57;;
61385;SDS011;47256;18.904;-99.054;2024-02-15T08:25:16;28.40;;;11.70;;
61385;SDS011;47256;18.904;-99.054;2024-02-15T08:27:47;29.95;;;12.13;;
61385;SDS011;47256;18.904;-99.054;2024-02-15T08:30:15;24.63;;;10.55;;
61385;SDS011;47256;18.904;-99.054;2024-02-15T08:32:43;26.02;;;10.63;;
61385;SDS011;47256;18.904;-99.054;2024-02-15T08:35:12;27.55;;;10.93;;
61385;SDS011;47256;18.904;-99.054;2024-02-15T08:37:40;26.38;;;11.32;;
61385;SDS011;47256;18.904;-99.054;2024-02-15T08:40:10;26.05;;;11.40;;
61385;SDS011;47256;18.904;-99.054;2024-02-15T08:42:40;18.80;;;9.80;;
61385;SDS011;47256;18.904;-99.054;2024-02-15T08:45:14;43.10;;;11.95;;
61385;SDS011;47256;18.904;-99.054;2024-02-15T08:47:42;29.23;;;13.43;;
61385;SDS011;47256;18.904;-99.054;2024-02-15T08:50:11;29.08;;;12.02;;
61385;SDS011;47256;18.904;-99.054;2024-02-15T08:52:39;28.08;;;11.98;;
61385;SDS011;47256;18.904;-99.054;2024-02-15T08:55:10;24.08;;;11.20;;
61385;SDS011;47256;18.904;-99.054;2024-02-15T08:57:42;20.60;;;11.35;;
61385;SDS011;47256;18.904;-99.054;2024-02-15T09:00:12;28.50;;;11.13;;
61385;SDS011;47256;18.904;-99.054;2024-02-15T09:02:47;27.08;;;11.13;;
61385;SDS011;47256;18.904;-99.054;2024-02-15T09:05:15;32.75;;;12.00;;
61385;SDS011;47256;18.904;-99.054;2024-02-15T09:07:46;23.08;;;11.02;;
61385;SDS011;47256;18.904;-99.054;2024-02-15T09:10:14;22.23;;;11.50;;
61385;SDS011;47256;18.904;-99.054;2024-02-15T09:12:44;23.63;;;11.35;;
61385;SDS011;47256;18.904;-99.054;2024-02-15T09:15:16;21.25;;;11.27;;
61385;SDS011;47256;18.904;-99.054;2024-02-15T09:17:44;25.73;;;11.63;;
61385;SDS011;47256;18.904;-99.054;2024-02-15T09:20:12;29.75;;;11.45;;
61385;SDS011;47256;18.904;-99.054;2024-02-15T09:22:51;21.17;;;11.18;;
61385;SDS011;47256;18.904;-99.054;2024-02-15T09:25:22;24.30;;;10.25;;
61385;SDS011;47256;18.904;-99.054;2024-02-15T09:27:51;30.23;;;11.93;;
61385;SDS011;47256;18.904;-99.054;2024-02-15T09:30:20;32.97;;;11.75;;
61385;SDS011;47256;18.904;-99.054;2024-02-15T09:32:51;29.25;;;11.35;;
61385;SDS011;47256;18.904;-99.054;2024-02-15T09:35:18;20.20;;;10.15;;
61385;SDS011;47256;18.904;-99.054;2024-02-15T09:37:47;26.65;;;11.27;;
61385;SDS011;47256;18.904;-99.054;2024-02-15T09:40:15;27.75;;;10.50;;
61385;SDS011;47256;18.904;-99.054;2024-02-15T09:42:44;34.30;;;10.40;;
61385;SDS011;47256;18.904;-99.054;2024-02-15T09:45:13;27.92;;;11.57;;
61385;SDS011;47256;18.904;-99.054;2024-02-15T09:47:42;25.13;;;10.77;;
61385;SDS011;47256;18.904;-99.054;2024-02-15T09:50:11;25.88;;;10.80;;
61385;SDS011;47256;18.904;-99.054;2024-02-15T09:52:51;35.70;;;11.77;;
61385;SDS011;47256;18.904;-99.054;2024-02-15T09:55:22;28.40;;;10.80;;
61385;SDS011;47256;18.904;-99.054;2024-02-15T09:57:55;30.50;;;11.27;;
61385;SDS011;47256;18.904;-99.054;2024-02-15T10:00:25;24.52;;;10.27;;
61385;SDS011;47256;18.904;-99.054;2024-02-15T10:02:53;19.60;;;8.98;;
61385;SDS011;47256;18.904;-99.054;2024-02-15T10:05:23;27.33;;;10.82;;
61385;SDS011;47256;18.904;-99.054;2024-02-15T10:07:50;18.42;;;10.07;;
61385;SDS011;47256;18.904;-99.054;2024-02-15T10:12:52;22.48;;;8.85;;
61385;SDS011;47256;18.904;-99.054;2024-02-15T10:18:03;19.83;;;9.18;;
61385;SDS011;47256;18.904;-99.054;2024-02-15T10:20:36;17.70;;;8.27;;
61385;SDS011;47256;18.904;-99.054;2024-02-15T10:23:11;24.15;;;9.10;;
61385;SDS011;47256;18.904;-99.054;2024-02-15T10:25:39;20.30;;;8.85;;
61385;SDS011;47256;18.904;-99.054;2024-02-15T10:28:11;18.45;;;9.52;;
61385;SDS011;47256;18.904;-99.054;2024-02-15T10:30:41;21.33;;;9.25;;
61385;SDS011;47256;18.904;-99.054;2024-02-15T10:33:18;16.05;;;8.68;;
61385;SDS011;47256;18.904;-99.054;2024-02-15T10:36:07;18.45;;;8.95;;
61385;SDS011;47256;18.904;-99.054;2024-02-15T10:38:37;19.75;;;8.52;;
61385;SDS011;47256;18.904;-99.054;2024-02-15T10:41:05;17.52;;;8.70;;
61385;SDS011;47256;18.904;-99.054;2024-02-15T10:43:38;22.42;;;8.80;;
61385;SDS011;47256;18.904;-99.054;2024-02-15T10:46:07;19.02;;;8.10;;
61385;SDS011;47256;18.904;-99.054;2024-02-15T10:48:37;22.02;;;8.68;;
61385;SDS011;47256;18.904;-99.054;2024-02-15T10:51:09;18.42;;;7.78;;
61385;SDS011;47256;18.904;-99.054;2024-02-15T10:53:45;20.88;;;9.15;;
61385;SDS011;47256;18.904;-99.054;2024-02-15T10:56:18;21.30;;;7.13;;
61385;SDS011;47256;18.904;-99.054;2024-02-15T10:58:50;21.45;;;8.68;;
61385;SDS011;47256;18.904;-99.054;2024-02-15T11:01:23;18.77;;;8.38;;
61385;SDS011;47256;18.904;-99.054;2024-02-15T11:03:51;13.68;;;7.07;;
61385;SDS011;47256;18.904;-99.054;2024-02-15T11:06:30;21.85;;;7.57;;
61385;SDS011;47256;18.904;-99.054;2024-02-15T11:09:02;14.63;;;7.18;;
61385;SDS011;47256;18.904;-99.054;2024-02-15T11:11:33;20.95;;;7.00;;
61385;SDS011;47256;18.904;-99.054;2024-02-15T11:16:55;19.20;;;6.97;;
61385;SDS011;47256;18.904;-99.054;2024-02-15T11:22:09;21.10;;;8.05;;
61385;SDS011;47256;18.904;-99.054;2024-02-15T11:27:29;13.18;;;6.80;;
61385;SDS011;47256;18.904;-99.054;2024-02-15T11:29:58;18.40;;;6.30;;
61385;SDS011;47256;18.904;-99.054;2024-02-15T11:35:10;21.40;;;8.27;;
61385;SDS011;47256;18.904;-99.054;2024-02-15T11:37:50;21.10;;;8.15;;
61385;SDS011;47256;18.904;-99.054;2024-02-15T11:40:25;14.70;;;7.13;;
61385;SDS011;47256;18.904;-99.054;2024-02-15T11:43:58;22.10;;;8.32;;
61385;SDS011;47256;18.904;-99.054;2024-02-15T11:46:15;20.42;;;7.28;;
61385;SDS011;47256;18.904;-99.054;2024-02-15T11:51:29;13.55;;;7.28;;
61385;SDS011;47256;18.904;-99.054;2024-02-15T11:54:09;17.92;;;6.88;;
61385;SDS011;47256;18.904;-99.054;2024-02-15T11:59:40;24.55;;;7.78;;
61385;SDS011;47256;18.904;-99.054;2024-02-15T12:02:41;18.15;;;7.65;;
61385;SDS011;47256;18.904;-99.054;2024-02-15T12:05:26;19.40;;;7.10;;
61385;SDS011;47256;18.904;-99.054;2024-02-15T12:08:12;18.70;;;6.88;;
61385;SDS011;47256;18.904;-99.054;2024-02-15T12:11:00;16.50;;;6.38;;
61385;SDS011;47256;18.904;-99.054;2024-02-15T12:13:50;12.40;;;5.78;;
61385;SDS011;47256;18.904;-99.054;2024-02-15T12:16:36;17.77;;;6.50;;
61385;SDS011;47256;18.904;-99.054;2024-02-15T12:19:23;19.40;;;6.50;;
61385;SDS011;47256;18.904;-99.054;2024-02-15T12:21:51;16.35;;;7.38;;
61385;SDS011;47256;18.904;-99.054;2024-02-15T12:24:19;12.52;;;5.50;;
61385;SDS011;47256;18.904;-99.054;2024-02-15T12:26:51;17.02;;;5.80;;
61385;SDS011;47256;18.904;-99.054;2024-02-15T12:29:27;12.10;;;5.45;;
61385;SDS011;47256;18.904;-99.054;2024-02-15T12:31:55;14.27;;;5.50;;
61385;SDS011;47256;18.904;-99.054;2024-02-15T12:34:23;15.30;;;5.70;;
61385;SDS011;47256;18.904;-99.054;2024-02-15T12:36:51;19.20;;;6.82;;
61385;SDS011;47256;18.904;-99.054;2024-02-15T12:39:33;14.00;;;6.15;;
61385;SDS011;47256;18.904;-99.054;2024-02-15T12:42:00;14.02;;;5.72;;
61385;SDS011;47256;18.904;-99.054;2024-02-15T12:44:30;13.65;;;5.47;;
61385;SDS011;47256;18.904;-99.054;2024-02-15T12:46:59;13.20;;;6.78;;
61385;SDS011;47256;18.904;-99.054;2024-02-15T12:49:29;17.70;;;6.95;;
61385;SDS011;47256;18.904;-99.054;2024-02-15T12:55:07;37.40;;;10.90;;
61385;SDS011;47256;18.904;-99.054;2024-02-15T12:57:35;22.27;;;8.55;;
61385;SDS011;47256;18.904;-99.054;2024-02-15T13:00:03;15.90;;;7.90;;
61385;SDS011;47256;18.904;-99.054;2024-02-15T13:02:37;22.63;;;8.80;;
61385;SDS011;47256;18.904;-99.054;2024-02-15T13:05:05;19.17;;;7.63;;
61385;SDS011;47256;18.904;-99.054;2024-02-15T13:07:38;29.13;;;9.45;;
61385;SDS011;47256;18.904;-99.054;2024-02-15T13:10:06;40.88;;;10.88;;
61385;SDS011;47256;18.904;-99.054;2024-02-15T13:12:35;33.67;;;11.90;;
61385;SDS011;47256;18.904;-99.054;2024-02-15T13:15:05;34.58;;;11.40;;
61385;SDS011;47256;18.904;-99.054;2024-02-15T13:17:38;45.50;;;14.65;;
61385;SDS011;47256;18.904;-99.054;2024-02-15T13:20:05;43.58;;;16.00;;
61385;SDS011;47256;18.904;-99.054;2024-02-15T13:22:37;59.40;;;16.63;;
61385;SDS011;47256;18.904;-99.054;2024-02-15T13:25:05;53.67;;;15.38;;
61385;SDS011;47256;18.904;-99.054;2024-02-15T13:27:36;46.70;;;14.63;;
61385;SDS011;47256;18.904;-99.054;2024-02-15T13:30:04;53.22;;;14.18;;
61385;SDS011;47256;18.904;-99.054;2024-02-15T13:32:37;51.70;;;14.85;;
61385;SDS011;47256;18.904;-99.054;2024-02-15T13:35:07;55.80;;;13.18;;
61385;SDS011;47256;18.904;-99.054;2024-02-15T13:37:40;43.38;;;14.95;;
61385;SDS011;47256;18.904;-99.054;2024-02-15T13:40:26;54.13;;;14.20;;
61385;SDS011;47256;18.904;-99.054;2024-02-15T13:42:57;44.72;;;13.35;;
61385;SDS011;47256;18.904;-99.054;2024-02-15T13:45:40;120.32;;;15.65;;
61385;SDS011;47256;18.904;-99.054;2024-02-15T13:48:11;40.22;;;11.00;;
61385;SDS011;47256;18.904;-99.054;2024-02-15T13:50:42;64.75;;;14.70;;
61385;SDS011;47256;18.904;-99.054;2024-02-15T13:53:10;68.88;;;15.52;;
61385;SDS011;47256;18.904;-99.054;2024-02-15T13:55:40;44.63;;;13.70;;
61385;SDS011;47256;18.904;-99.054;2024-02-15T13:58:08;44.53;;;11.23;;
61385;SDS011;47256;18.904;-99.054;2024-02-15T14:00:39;35.95;;;11.27;;
61385;SDS011;47256;18.904;-99.054;2024-02-15T14:03:10;46.55;;;12.63;;
61385;SDS011;47256;18.904;-99.054;2024-02-15T14:05:38;30.63;;;11.13;;
61385;SDS011;47256;18.904;-99.054;2024-02-15T14:08:08;36.88;;;10.63;;
61385;SDS011;47256;18.904;-99.054;2024-02-15T14:10:37;66.25;;;13.63;;
61385;SDS011;47256;18.904;-99.054;2024-02-15T14:13:06;69.13;;;13.32;;
61385;SDS011;47256;18.904;-99.054;2024-02-15T14:15:38;84.65;;;14.77;;
61385;SDS011;47256;18.904;-99.054;2024-02-15T14:18:06;60.78;;;11.38;;
61385;SDS011;47256;18.904;-99.054;2024-02-15T14:20:39;49.00;;;11.43;;
61385;SDS011;47256;18.904;-99.054;2024-02-15T14:23:13;47.53;;;10.80;;
61385;SDS011;47256;18.904;-99.054;2024-02-15T14:25:40;38.15;;;10.18;;
61385;SDS011;47256;18.904;-99.054;2024-02-15T14:28:09;30.15;;;8.35;;
61385;SDS011;47256;18.904;-99.054;2024-02-15T14:30:37;33.20;;;9.40;;
61385;SDS011;47256;18.904;-99.054;2024-02-15T14:33:25;34.70;;;7.78;;
61385;SDS011;47256;18.904;-99.054;2024-02-15T14:35:52;27.25;;;7.90;;
61385;SDS011;47256;18.904;-99.054;2024-02-15T14:38:21;30.48;;;8.13;;
61385;SDS011;47256;18.904;-99.054;2024-02-15T14:40:50;24.73;;;9.50;;
61385;SDS011;47256;18.904;-99.054;2024-02-15T14:43:22;22.83;;;7.15;;
61385;SDS011;47256;18.904;-99.054;2024-02-15T14:45:52;19.33;;;7.18;;
61385;SDS011;47256;18.904;-99.054;2024-02-15T14:48:22;32.88;;;7.57;;
61385;SDS011;47256;18.904;-99.054;2024-02-15T14:50:53;28.08;;;7.63;;